KMLU/MLU METAR and TAF weather

Enter ICAO airport designator
Station Type Date Time Source
KMLU METAR 2020/09/19 20:53 UTC NOAA

KMLU 192053Z AUTO 02010KT 10SM CLR 28/12 A3003 RMK AO2 SLP167 T02830117 56025


Station Type Date Time Source
KMLU Decoded METAR 2020/09/19 20:53 UTC NOAA

MONROE REGIONAL AIRPORT, LA, United States (KMLU) 32-31N 092-02W 29M
Sep 19, 2020 - 04:53 PM EDT / 2020.09.19 2053 UTC
Wind: from the NNE (020 degrees) at 12 MPH (10 KT):0
Visibility: 10 mile(s):0
Sky conditions: clear
Temperature: 82.9 F (28.3 C)
Dew Point: 53.1 F (11.7 C)
Relative Humidity: 35%
Pressure (altimeter): 30.03 in. Hg (1016 hPa)
Pressure tendency: 0.07 inches (2.5 hPa) lower than three hours ago
ob: KMLU 192053Z AUTO 02010KT 10SM CLR 28/12 A3003 RMK AO2 SLP167 T02830117 56025
cycle: 21

Station Type Date Time Source
KMLU TAF 2020/09/19 18:22 UTC NOAA

TAF KMLU 191720Z 1918/2018 03007KT P6SM BKN250
FM192000 04013G20KT P6SM BKN250
FM200300 03008KT P6SM BKN250
FM201300 06012G18KT P6SM BKN250

Example: see airport list